Time;durP1;ratioP1;P1;durP2;ratioP2;P2;SDS_P1;SDS_P2;PMS_P1;PMS_P2;Temp;Humidity;BMP_temperature;BMP_pressure;BME280_temperature;BME280_humidity;BME280_pressure;Samples;Min_cycle;Max_cycle;Signal;HPM_P1;HPM_P2
2024/03/14 00:03:22;;;;;;;;;;;;;;;17.53;46.49;99624.25;10325407;28;996;-72
2024/03/14 00:08:17;;;;;;;;;;;;;;;17.51;46.26;99631.38;10326013;28;829;-72
2024/03/14 00:13:13;;;;;;;;;;;;;;;17.48;46.35;99626.22;10325223;28;1961;-72
2024/03/14 00:18:09;;;;;;;;;;;;;;;17.47;46.42;99625.34;10325812;28;794;-72
2024/03/14 00:23:05;;;;;;;;;;;;;;;17.45;46.28;99626.38;10325931;28;918;-72
2024/03/14 00:28:02;;;;;;;;;;;;;;;17.43;46.32;99621.16;10325370;28;1451;-71
2024/03/14 00:32:59;;;;;;;;;;;;;;;17.42;46.25;99624.72;10325530;28;1914;-72
2024/03/14 00:37:55;;;;;;;;;;;;;;;17.41;46.43;99623.00;10324191;28;850;-72
2024/03/14 00:42:51;;;;;;;;;;;;;;;17.40;46.39;99631.84;10325273;28;873;-72
2024/03/14 00:47:47;;;;;;;;;;;;;;;17.38;46.42;99623.13;10324227;28;1162;-72
2024/03/14 00:52:44;;;;;;;;;;;;;;;17.36;46.40;99614.44;10325069;28;1899;-72
2024/03/14 00:57:39;;;;;;;;;;;;;;;17.36;46.55;99618.84;10332233;28;858;-72
2024/03/14 01:02:35;;;;;;;;;;;;;;;17.34;46.46;99623.31;10332646;28;842;-72
2024/03/14 01:07:32;;;;;;;;;;;;;;;17.32;46.33;99612.88;10331728;28;1092;-71
2024/03/14 01:12:28;;;;;;;;;;;;;;;17.30;46.49;99605.03;10330964;28;1947;-72
2024/03/14 01:17:24;;;;;;;;;;;;;;;17.28;46.41;99606.88;10332052;28;934;-72
2024/03/14 01:22:19;;;;;;;;;;;;;;;17.27;46.61;99599.03;10331275;28;776;-72
2024/03/14 01:27:18;;;;;;;;;;;;;;;17.26;46.64;99611.34;10331129;28;901;-72
2024/03/14 01:32:14;;;;;;;;;;;;;;;17.25;46.53;99607.00;10331753;28;1910;-72
2024/03/14 01:37:12;;;;;;;;;;;;;;;17.24;46.65;99600.03;10330292;28;941;-72
2024/03/14 01:42:08;;;;;;;;;;;;;;;17.21;46.62;99596.66;10331200;28;928;-72
2024/03/14 01:47:05;;;;;;;;;;;;;;;17.21;46.41;99587.00;10331106;28;948;-72
2024/03/14 01:52:01;;;;;;;;;;;;;;;17.20;46.57;99580.00;10330171;28;1898;-72
2024/03/14 01:57:00;;;;;;;;;;;;;;;17.18;46.57;99578.34;10330653;28;842;-72
2024/03/14 02:01:56;;;;;;;;;;;;;;;17.17;46.47;99580.13;10329848;28;861;-72
2024/03/14 02:06:52;;;;;;;;;;;;;;;17.16;46.52;99573.19;10328395;28;830;-72
2024/03/14 02:11:48;;;;;;;;;;;;;;;17.16;46.56;99565.28;10329385;28;1952;-72
2024/03/14 02:16:44;;;;;;;;;;;;;;;17.13;46.58;99561.91;10330032;28;870;-72
2024/03/14 02:21:40;;;;;;;;;;;;;;;17.12;46.74;99558.41;10329010;28;882;-72
2024/03/14 02:26:36;;;;;;;;;;;;;;;17.11;46.48;99561.97;10328915;28;910;-71
2024/03/14 02:31:32;;;;;;;;;;;;;;;17.11;46.50;99564.63;10328644;28;1623;-72
2024/03/14 02:36:28;;;;;;;;;;;;;;;17.09;46.58;99554.13;10328661;28;1914;-71
2024/03/14 02:41:24;;;;;;;;;;;;;;;17.09;46.52;99553.28;10329325;28;835;-71
2024/03/14 02:46:20;;;;;;;;;;;;;;;17.08;46.54;99551.56;10328396;28;856;-71
2024/03/14 02:51:16;;;;;;;;;;;;;;;17.06;46.62;99553.41;10328468;28;854;-72
2024/03/14 02:56:12;;;;;;;;;;;;;;;17.06;46.50;99554.28;10327530;28;1897;-71
2024/03/14 03:01:11;;;;;;;;;;;;;;;17.05;46.74;99555.19;10327546;28;803;-71
2024/03/14 03:06:07;;;;;;;;;;;;;;;17.03;46.49;99543.88;10327916;28;847;-72
2024/03/14 03:11:02;;;;;;;;;;;;;;;17.02;46.44;99541.31;10326469;28;870;-72
2024/03/14 03:15:58;;;;;;;;;;;;;;;17.01;46.63;99539.59;10327267;28;1963;-72
2024/03/14 03:20:54;;;;;;;;;;;;;;;17.00;46.63;99533.47;10327324;28;1017;-72
2024/03/14 03:25:50;;;;;;;;;;;;;;;17.00;46.51;99535.25;10326572;28;901;-72
2024/03/14 03:30:46;;;;;;;;;;;;;;;17.00;46.70;99535.25;10325561;28;1229;-72
2024/03/14 03:35:42;;;;;;;;;;;;;;;16.97;46.51;99525.69;10326847;28;1981;-72
2024/03/14 03:40:39;;;;;;;;;;;;;;;16.97;46.47;99522.22;10326023;28;938;-71
2024/03/14 03:45:35;;;;;;;;;;;;;;;16.96;46.50;99518.72;10326081;28;862;-72
2024/03/14 03:50:31;;;;;;;;;;;;;;;16.95;46.61;99524.03;10325892;28;813;-71
2024/03/14 03:55:27;;;;;;;;;;;;;;;16.94;46.63;99523.19;10326207;28;1959;-71
2024/03/14 04:00:33;;;;;;;;;;;;;;;16.94;46.54;99525.84;10326774;28;826;-72
2024/03/14 04:05:29;;;;;;;;;;;;;;;16.93;46.55;99520.66;10325493;28;764;-72
2024/03/14 04:10:25;;;;;;;;;;;;;;;16.92;46.55;99514.50;10325238;28;1008;-72
2024/03/14 04:15:21;;;;;;;;;;;;;;;16.91;46.57;99514.59;10324889;28;1882;-72
2024/03/14 04:20:17;;;;;;;;;;;;;;;16.89;46.71;99513.78;10325705;28;941;-72
2024/03/14 04:25:17;;;;;;;;;;;;;;;16.88;46.71;99512.09;10325263;28;857;-72
2024/03/14 04:30:17;;;;;;;;;;;;;;;16.88;46.74;99506.84;10328996;28;1116;-72
2024/03/14 04:35:15;;;;;;;;;;;;;;;16.86;46.58;99506.88;10333108;28;1914;-72
2024/03/14 04:40:11;;;;;;;;;;;;;;;16.85;46.64;99498.13;10332888;28;795;-71
2024/03/14 04:45:09;;;;;;;;;;;;;;;16.85;46.57;99500.78;10332778;28;863;-72
2024/03/14 04:50:08;;;;;;;;;;;;;;;16.83;46.49;99502.59;10333165;28;850;-71
2024/03/14 04:55:10;;;;;;;;;;;;;;;16.83;46.51;99501.75;10332950;28;1894;-72
2024/03/14 05:05:15;;;;;;;;;;;;;;;16.83;46.49;99502.59;10332568;28;901;-72
2024/03/14 05:10:14;;;;;;;;;;;;;;;16.85;46.89;99506.03;10332067;28;912;-72
2024/03/14 05:15:10;;;;;;;;;;;;;;;16.86;46.77;99504.25;10332169;28;1885;-71
2024/03/14 05:20:06;;;;;;;;;;;;;;;16.89;46.52;99505.91;10331489;28;884;-72
2024/03/14 05:25:06;;;;;;;;;;;;;;;16.92;46.71;99497.84;10332167;28;858;-72
2024/03/14 05:30:02;;;;;;;;;;;;;;;16.95;46.58;99505.63;10331124;28;1125;-72
2024/03/14 05:34:58;;;;;;;;;;;;;;;16.97;46.58;99503.78;10330878;28;1914;-71
2024/03/14 05:39:54;;;;;;;;;;;;;;;17.01;46.64;99492.22;10330581;28;1054;-72
2024/03/14 05:44:50;;;;;;;;;;;;;;;17.03;46.65;99487.72;10331134;28;782;-72
2024/03/14 05:49:46;;;;;;;;;;;;;;;17.06;46.50;99480.53;10330325;28;859;-71
2024/03/14 05:54:41;;;;;;;;;;;;;;;17.09;46.63;99476.91;10329588;28;1893;-72
2024/03/14 05:59:37;;;;;;;;;;;;;;;17.11;46.46;99475.06;10330040;28;842;-72
2024/03/14 06:04:34;;;;;;;;;;;;;;;17.15;46.61;99471.38;10329133;28;1369;-71
2024/03/14 06:09:39;;;;;;;;;;;;;;;17.18;46.66;99465.94;10329076;28;1149;-71
2024/03/14 06:14:35;;;;;;;;;;;;;;;17.19;46.47;99472.94;10329672;28;1894;-74
2024/03/14 06:19:31;;;;;;;;;;;;;;;17.21;46.65;99473.75;10329794;28;845;-72
2024/03/14 06:24:28;;;;;;;;;;;;;;;17.24;46.56;99473.59;10328954;28;1053;-71
2024/03/14 06:29:24;;;;;;;;;;;;;;;17.27;46.58;99467.34;10328638;28;1113;-72
2024/03/14 06:34:20;;;;;;;;;;;;;;;17.29;46.55;99471.63;10329161;28;1981;-72
2024/03/14 06:39:17;;;;;;;;;;;;;;;17.31;46.44;99475.00;10328631;28;814;-73
2024/03/14 06:44:13;;;;;;;;;;;;;;;17.34;46.59;99470.53;10328120;28;866;-71
2024/03/14 06:49:12;;;;;;;;;;;;;;;17.36;46.75;99471.31;10327950;28;859;-71
2024/03/14 06:54:08;;;;;;;;;;;;;;;17.38;46.46;99475.59;10327063;28;1894;-76
2024/03/14 06:59:07;;;;;;;;;;;;;;;17.39;46.52;99471.19;10327557;28;856;-72
2024/03/14 07:04:03;;;;;;;;;;;;;;;17.41;46.68;99469.34;10327333;28;989;-73
2024/03/14 07:09:01;;;;;;;;;;;;;;;17.43;46.60;99470.97;10327623;28;929;-72
2024/03/14 07:13:57;;;;;;;;;;;;;;;17.45;46.63;99468.28;10326939;28;1889;-71
2024/03/14 07:18:56;;;;;;;;;;;;;;;17.46;46.83;99477.88;10326875;28;872;-71
2024/03/14 07:23:53;;;;;;;;;;;;;;;17.49;46.63;99483.00;10326679;28;845;-75
2024/03/14 07:28:50;;;;;;;;;;;;;;;17.50;46.49;99484.69;10326341;28;1156;-72
2024/03/14 07:33:46;;;;;;;;;;;;;;;17.51;46.64;99492.53;10326237;28;1967;-72
2024/03/14 07:38:43;;;;;;;;;;;;;;;17.53;46.68;99493.34;10326063;28;967;-72
2024/03/14 07:43:39;;;;;;;;;;;;;;;17.54;46.79;99494.19;10325990;28;899;-74
2024/03/14 07:48:37;;;;;;;;;;;;;;;17.56;46.83;99504.66;10326765;28;818;-73
2024/03/14 07:53:37;;;;;;;;;;;;;;;17.56;46.68;99500.25;10326467;28;1906;-73
2024/03/14 07:58:33;;;;;;;;;;;;;;;17.56;46.70;99502.88;10326289;28;850;-71
2024/03/14 08:03:29;;;;;;;;;;;;;;;17.56;46.75;99505.53;10324639;28;861;-72
2024/03/14 08:08:26;;;;;;;;;;;;;;;17.57;46.84;99509.84;10325473;28;959;-73
2024/03/14 08:13:23;;;;;;;;;;;;;;;17.57;46.75;99516.91;10326122;28;1902;-71
2024/03/14 08:18:22;;;;;;;;;;;;;;;17.56;46.70;99512.56;10325826;28;835;-71
2024/03/14 08:23:18;;;;;;;;;;;;;;;17.56;46.83;99516.06;10325776;28;798;-70
2024/03/14 08:28:15;;;;;;;;;;;;;;;17.56;46.64;99512.56;10325435;28;1209;-70
2024/03/14 08:33:12;;;;;;;;;;;;;;;17.56;46.64;99518.69;10324876;28;1910;-71
2024/03/14 08:38:09;;;;;;;;;;;;;;;17.59;46.64;99517.69;10324533;28;767;-71
2024/03/14 08:43:05;;;;;;;;;;;;;;;17.61;46.61;99513.22;10325541;28;881;-71
2024/03/14 08:48:01;;;;;;;;;;;;;;;17.61;46.74;99521.97;10324665;28;783;-71
2024/03/14 08:52:56;;;;;;;;;;;;;;;17.63;46.65;99517.50;10324558;28;1898;-71
2024/03/14 08:57:52;;;;;;;;;;;;;;;17.64;46.61;99511.28;10307895;28;707;-71
2024/03/14 09:02:49;;;;;;;;;;;;;;;17.66;46.57;99498.06;10325023;28;779;-71
2024/03/14 09:07:45;;;;;;;;;;;;;;;17.66;46.50;99501.53;10324281;28;998;-71
2024/03/14 09:12:41;;;;;;;;;;;;;;;17.69;46.63;99492.63;10324131;28;1890;-71
2024/03/14 09:17:38;;;;;;;;;;;;;;;17.69;46.68;99488.19;10330681;28;851;-71
2024/03/14 09:22:36;;;;;;;;;;;;;;;17.71;46.35;99486.34;10331447;28;771;-71
2024/03/14 09:27:32;;;;;;;;;;;;;;;17.71;46.44;99483.72;10331180;28;898;-71
2024/03/14 09:32:30;;;;;;;;;;;;;;;17.74;46.51;99474.81;10330872;28;1909;-71
2024/03/14 09:37:25;;;;;;;;;;;;;;;17.76;46.46;99480.84;10331704;28;861;-71
2024/03/14 09:42:21;;;;;;;;;;;;;;;17.76;46.52;99475.56;10330706;28;763;-71
2024/03/14 09:47:17;;;;;;;;;;;;;;;17.78;46.30;99478.16;10331119;28;869;-71
2024/03/14 09:52:13;;;;;;;;;;;;;;;17.79;46.35;99479.84;10330838;28;1893;-71
2024/03/14 09:57:10;;;;;;;;;;;;;;;17.81;46.44;99478.88;10330238;28;904;-71
2024/03/14 10:02:06;;;;;;;;;;;;;;;17.81;46.47;99472.75;10329914;28;1132;-74
2024/03/14 10:07:03;;;;;;;;;;;;;;;17.83;46.33;99465.63;10330357;28;946;-71
2024/03/14 10:12:01;;;;;;;;;;;;;;;17.84;46.51;99464.69;10329467;28;1914;-71
2024/03/14 10:16:58;;;;;;;;;;;;;;;17.86;46.26;99462.84;10329476;28;908;-71
2024/03/14 10:21:54;;;;;;;;;;;;;;;17.87;46.61;99459.31;10329167;28;1052;-71
2024/03/14 10:26:50;;;;;;;;;;;;;;;17.89;46.44;99460.06;10328573;28;767;-71
2024/03/14 10:31:46;;;;;;;;;;;;;;;17.91;46.27;99452.94;10329498;28;1164;-74
2024/03/14 10:36:41;;;;;;;;;;;;;;;17.88;46.33;99450.44;10326311;28;1910;-71
2024/03/14 10:41:37;;;;;;;;;;;;;;;17.90;46.26;99449.44;10327880;28;897;-71
2024/03/14 10:46:36;;;;;;;;;;;;;;;17.93;46.49;99451.09;10328189;28;862;-71
2024/03/14 10:51:32;;;;;;;;;;;;;;;17.93;46.42;99437.91;10327772;28;859;-71
2024/03/14 10:56:28;;;;;;;;;;;;;;;17.94;46.56;99429.06;10327665;28;1951;-70
2024/03/14 11:01:24;;;;;;;;;;;;;;;17.96;46.31;99424.56;10327372;28;809;-71
2024/03/14 11:06:19;;;;;;;;;;;;;;;17.96;46.46;99417.50;10327313;28;818;-71
2024/03/14 11:11:15;;;;;;;;;;;;;;;17.98;46.27;99411.31;10327559;28;866;-72
2024/03/14 11:16:13;;;;;;;;;;;;;;;18.00;46.37;99409.44;10325794;28;1954;-71
2024/03/14 11:21:10;;;;;;;;;;;;;;;18.02;46.47;99400.50;10326514;28;990;-71
2024/03/14 11:26:06;;;;;;;;;;;;;;;18.02;46.51;99392.59;10325983;28;814;-71
2024/03/14 11:31:02;;;;;;;;;;;;;;;18.02;46.57;99397.88;10326820;28;1403;-72
2024/03/14 11:35:58;;;;;;;;;;;;;;;18.03;46.68;99396.13;10325023;28;1969;-71
2024/03/14 11:40:53;;;;;;;;;;;;;;;18.04;46.56;99385.47;10326307;28;811;-71
2024/03/14 11:45:49;;;;;;;;;;;;;;;18.05;46.41;99387.19;10326344;28;886;-72
2024/03/14 11:50:47;;;;;;;;;;;;;;;18.08;46.42;99381.75;10325968;28;810;-77
2024/03/14 11:55:43;;;;;;;;;;;;;;;18.11;46.34;99380.75;10326222;28;1898;-71
2024/03/14 12:00:39;;;;;;;;;;;;;;;18.10;46.38;99374.63;10325608;28;879;-71
2024/03/14 12:05:38;;;;;;;;;;;;;;;18.11;46.50;99373.69;10326142;28;976;-71
2024/03/14 12:10:33;;;;;;;;;;;;;;;18.13;46.23;99368.31;10325404;28;985;-71
2024/03/14 12:15:34;;;;;;;;;;;;;;;18.11;46.44;99364.94;10324529;28;1889;-66
2024/03/14 12:20:32;;;;;;;;;;;;;;;18.14;46.46;99370.91;10325304;28;841;-71
2024/03/14 12:25:29;;;;;;;;;;;;;;;18.13;46.50;99356.00;10298069;28;1718;-70
2024/03/14 12:30:25;;;;;;;;;;;;;;;18.16;46.41;99344.47;10283670;28;1291;-70
2024/03/14 12:35:22;;;;;;;;;;;;;;;18.17;46.31;99341.72;10284146;28;1977;-69
2024/03/14 12:40:19;;;;;;;;;;;;;;;18.19;46.29;99339.00;10284835;28;982;-71
2024/03/14 12:45:15;;;;;;;;;;;;;;;18.22;46.08;99343.28;10283986;28;842;-73
2024/03/14 12:50:12;;;;;;;;;;;;;;;18.25;46.20;99320.22;10286339;28;806;-74
2024/03/14 12:55:08;;;;;;;;;;;;;;;18.29;46.17;99316.50;10292978;28;1902;-71
2024/03/14 13:00:04;;;;;;;;;;;;;;;18.33;46.14;99301.34;10291618;28;924;-77
2024/03/14 13:05:01;;;;;;;;;;;;;;;18.38;45.92;99299.31;10291466;28;890;-71
2024/03/14 13:09:57;;;;;;;;;;;;;;;18.42;46.26;99290.34;10291992;28;902;-72
2024/03/14 13:14:53;;;;;;;;;;;;;;;18.47;46.21;99280.38;10291015;28;1906;-71
2024/03/14 13:19:50;;;;;;;;;;;;;;;18.52;46.14;99277.47;10290925;28;894;-71
2024/03/14 13:24:49;;;;;;;;;;;;;;;18.57;46.09;99278.06;10290721;28;858;-72
2024/03/14 13:29:45;;;;;;;;;;;;;;;18.64;46.07;99270.69;10290566;28;1341;-72
2024/03/14 13:34:43;;;;;;;;;;;;;;;18.68;45.93;99254.63;10290899;28;1989;-71
2024/03/14 13:39:39;;;;;;;;;;;;;;;18.75;45.88;99261.28;10290807;28;860;-71
2024/03/14 13:44:35;;;;;;;;;;;;;;;18.81;45.83;99255.66;10289948;28;819;-72
2024/03/14 13:49:37;;;;;;;;;;;;;;;18.88;45.72;99255.31;10289521;28;918;-72
2024/03/14 13:54:33;;;;;;;;;;;;;;;18.95;45.79;99246.97;10289240;28;1918;-72
2024/03/14 13:59:29;;;;;;;;;;;;;;;18.96;45.60;99248.66;10289172;28;897;-71
2024/03/14 14:04:26;;;;;;;;;;;;;;;18.92;45.88;99246.31;10289504;28;878;-72
2024/03/14 14:09:24;;;;;;;;;;;;;;;19.11;45.60;99240.84;10288666;28;866;-72
2024/03/14 14:14:22;;;;;;;;;;;;;;;19.11;45.52;99235.56;10289360;28;1902;-71
2024/03/14 14:19:18;;;;;;;;;;;;;;;19.10;45.64;99225.91;10288384;28;807;-71
2024/03/14 14:24:13;;;;;;;;;;;;;;;19.20;45.45;99216.50;10287553;28;780;-72
2024/03/14 14:29:10;;;;;;;;;;;;;;;19.28;45.33;99211.63;10288064;28;1397;-72
2024/03/14 14:34:06;;;;;;;;;;;;;;;19.38;45.25;99199.59;10287769;28;1913;-72
2024/03/14 14:39:02;;;;;;;;;;;;;;;19.43;45.21;99188.75;10287687;28;864;-73
2024/03/14 14:43:58;;;;;;;;;;;;;;;19.49;45.25;99181.31;10288035;28;889;-73
2024/03/14 14:48:54;;;;;;;;;;;;;;;19.38;45.41;99165.22;10287716;28;830;-73
2024/03/14 14:53:50;;;;;;;;;;;;;;;19.60;45.23;99167.47;10287571;28;1961;-72
2024/03/14 14:58:47;;;;;;;;;;;;;;;19.51;45.22;99164.50;10286829;28;970;-73
2024/03/14 15:03:43;;;;;;;;;;;;;;;19.47;45.34;99158.56;10285998;28;1270;-72
2024/03/14 15:08:41;;;;;;;;;;;;;;;19.39;45.59;99145.81;10286436;28;769;-72
2024/03/14 15:13:38;;;;;;;;;;;;;;;19.42;45.40;99142.97;10285979;28;1961;-71
2024/03/14 15:18:33;;;;;;;;;;;;;;;19.42;45.40;99134.22;10286127;28;787;-72
2024/03/14 15:23:30;;;;;;;;;;;;;;;19.46;45.29;99131.25;10286807;28;902;-71
2024/03/14 15:28:26;;;;;;;;;;;;;;;19.65;44.90;99109.03;10285540;28;1077;-72
2024/03/14 15:33:22;;;;;;;;;;;;;;;19.68;44.95;99104.44;10285486;28;1918;-71
2024/03/14 15:38:21;;;;;;;;;;;;;;;19.55;45.26;99105.25;10286012;28;814;-72
2024/03/14 15:43:17;;;;;;;;;;;;;;;19.68;45.22;99103.59;10285209;28;798;-72
2024/03/14 15:48:12;;;;;;;;;;;;;;;19.65;45.12;99103.75;10285062;28;1016;-72
2024/03/14 15:53:10;;;;;;;;;;;;;;;19.62;45.37;99115.34;10285376;28;1961;-72
2024/03/14 15:58:06;;;;;;;;;;;;;;;19.50;45.53;99105.53;10285355;28;830;-72
2024/03/14 16:03:03;;;;;;;;;;;;;;;19.42;45.45;99103.34;10284646;28;939;-71
2024/03/14 16:07:59;;;;;;;;;;;;;;;19.39;45.65;99100.88;10285089;28;904;-72
2024/03/14 16:12:55;;;;;;;;;;;;;;;19.36;45.50;99102.84;10284284;28;1902;-72
2024/03/14 16:17:51;;;;;;;;;;;;;;;19.32;45.71;99088.13;10284239;28;918;-72
2024/03/14 16:22:49;;;;;;;;;;;;;;;19.29;45.60;99085.69;10284204;28;972;-71
2024/03/14 16:27:45;;;;;;;;;;;;;;;19.27;45.51;99083.97;10291174;28;838;-72
2024/03/14 16:32:41;;;;;;;;;;;;;;;19.25;45.47;99090.28;10292776;28;1913;-72
2024/03/14 16:37:38;;;;;;;;;;;;;;;19.23;45.58;99098.31;10292314;28;925;-72
2024/03/14 16:42:35;;;;;;;;;;;;;;;19.22;45.52;99098.38;10292943;28;870;-72
2024/03/14 16:47:31;;;;;;;;;;;;;;;19.20;45.57;99094.97;10292943;28;937;-71
2024/03/14 16:52:27;;;;;;;;;;;;;;;19.17;45.53;99077.53;10291884;28;1898;-71
2024/03/14 16:57:22;;;;;;;;;;;;;;;19.17;45.45;99071.38;10290898;28;1457;-71
2024/03/14 17:02:18;;;;;;;;;;;;;;;19.16;45.74;99069.72;10291341;28;889;-71
2024/03/14 17:07:14;;;;;;;;;;;;;;;19.14;45.66;99071.59;10291222;28;898;-72
2024/03/14 17:12:10;;;;;;;;;;;;;;;19.12;45.58;99071.66;10290938;28;1955;-72
2024/03/14 17:17:06;;;;;;;;;;;;;;;19.12;45.61;99068.19;10291403;28;885;-76
2024/03/14 17:22:02;;;;;;;;;;;;;;;19.11;45.72;99066.47;10291065;28;864;-71
2024/03/14 17:26:58;;;;;;;;;;;;;;;19.11;45.76;99069.13;10290448;28;854;-71
2024/03/14 17:31:56;;;;;;;;;;;;;;;19.09;45.56;99074.50;10290523;28;1097;-72
2024/03/14 17:36:52;;;;;;;;;;;;;;;19.09;45.63;99071.84;10289475;28;1961;-72
2024/03/14 17:41:48;;;;;;;;;;;;;;;19.09;45.75;99071.00;10290430;28;921;-71
2024/03/14 17:46:44;;;;;;;;;;;;;;;19.08;45.71;99071.97;10289709;28;1082;-72
2024/03/14 17:51:40;;;;;;;;;;;;;;;19.08;45.66;99071.97;10288975;28;952;-72
2024/03/14 17:56:36;;;;;;;;;;;;;;;19.06;45.85;99074.69;10289228;28;1890;-72
2024/03/14 18:01:32;;;;;;;;;;;;;;;19.08;45.64;99079.88;10289174;28;780;-72
2024/03/14 18:06:28;;;;;;;;;;;;;;;19.07;45.78;99071.09;10288340;28;1012;-72
2024/03/14 18:11:23;;;;;;;;;;;;;;;19.07;45.74;99070.22;10288776;28;830;-72
2024/03/14 18:16:20;;;;;;;;;;;;;;;19.06;45.71;99077.31;10288510;28;1890;-72
2024/03/14 18:21:16;;;;;;;;;;;;;;;19.07;45.67;99075.53;10288656;28;842;-72
2024/03/14 18:26:12;;;;;;;;;;;;;;;19.07;45.79;99078.16;10288236;28;877;-72
2024/03/14 18:31:09;;;;;;;;;;;;;;;19.06;45.84;99082.59;10287858;28;1255;-72
2024/03/14 18:36:04;;;;;;;;;;;;;;;19.07;45.81;99086.94;10287770;28;1969;-72
2024/03/14 18:41:01;;;;;;;;;;;;;;;19.07;45.65;99070.22;10288249;28;925;-71
2024/03/14 18:45:56;;;;;;;;;;;;;;;19.08;45.80;99077.25;10288009;28;916;-72
2024/03/14 18:50:52;;;;;;;;;;;;;;;19.07;45.81;99071.09;10286372;28;810;-72
2024/03/14 18:55:48;;;;;;;;;;;;;;;19.08;45.78;99071.97;10287585;28;1901;-72
2024/03/14 19:00:44;;;;;;;;;;;;;;;19.08;45.69;99078.09;10287418;28;870;-72
2024/03/14 19:05:41;;;;;;;;;;;;;;;19.09;45.82;99068.34;10286691;28;830;-72
2024/03/14 19:10:37;;;;;;;;;;;;;;;19.09;45.56;99069.22;10287097;28;811;-72
2024/03/14 19:15:33;;;;;;;;;;;;;;;19.09;45.77;99060.44;10286217;28;1951;-72
2024/03/14 19:20:29;;;;;;;;;;;;;;;19.11;45.62;99071.78;10287060;28;774;-72
2024/03/14 19:25:24;;;;;;;;;;;;;;;19.11;45.70;99066.47;10285975;28;944;-72
2024/03/14 19:30:22;;;;;;;;;;;;;;;19.11;45.78;99061.19;10285495;28;1113;-73
2024/03/14 19:35:19;;;;;;;;;;;;;;;19.12;45.74;99068.19;10286433;28;1906;-72
2024/03/14 19:40:15;;;;;;;;;;;;;;;19.11;45.71;99059.41;10285952;28;857;-73
2024/03/14 19:45:12;;;;;;;;;;;;;;;19.12;45.82;99055.81;10268920;28;1759;-73
2024/03/14 19:50:09;;;;;;;;;;;;;;;19.13;45.81;99068.09;10285120;28;877;-73
2024/03/14 19:55:05;;;;;;;;;;;;;;;19.13;45.69;99054.03;10284858;28;1985;-73
2024/03/14 20:00:01;;;;;;;;;;;;;;;19.12;45.68;99066.38;10284561;28;864;-72
2024/03/14 20:04:57;;;;;;;;;;;;;;;19.13;45.74;99065.44;10284370;28;1170;-72
2024/03/14 20:09:53;;;;;;;;;;;;;;;19.14;45.79;99067.16;10285149;28;875;-72
2024/03/14 20:14:49;;;;;;;;;;;;;;;19.15;45.60;99063.56;10283710;28;1961;-72
2024/03/14 20:19:45;;;;;;;;;;;;;;;19.14;45.65;99056.56;10284262;28;902;-72
2024/03/14 20:24:43;;;;;;;;;;;;;;;19.16;45.57;99053.84;10284311;28;779;-72
2024/03/14 20:29:43;;;;;;;;;;;;;;;19.16;45.59;99049.41;10283977;28;1886;-72
2024/03/14 20:34:39;;;;;;;;;;;;;;;19.17;45.64;99055.53;10283903;28;1910;-72
2024/03/14 20:39:36;;;;;;;;;;;;;;;19.16;45.61;99049.41;10283947;28;930;-72
2024/03/14 20:44:32;;;;;;;;;;;;;;;19.16;45.75;99038.00;10283922;28;771;-73
2024/03/14 20:49:29;;;;;;;;;;;;;;;19.16;45.74;99038.00;10284427;28;866;-72
2024/03/14 20:54:25;;;;;;;;;;;;;;;19.15;45.59;99037.16;10283533;28;1945;-72
2024/03/14 20:59:23;;;;;;;;;;;;;;;19.15;45.76;99039.81;10284127;28;811;-72
2024/03/14 21:04:19;;;;;;;;;;;;;;;19.14;45.70;99038.09;10284291;28;825;-72
2024/03/14 21:09:17;;;;;;;;;;;;;;;19.14;45.68;99030.16;10283898;28;912;-73
2024/03/14 21:14:13;;;;;;;;;;;;;;;19.15;45.74;99028.34;10290949;28;1906;-72
2024/03/14 21:19:09;;;;;;;;;;;;;;;19.14;45.63;99030.16;10290219;28;905;-73
2024/03/14 21:24:05;;;;;;;;;;;;;;;19.14;45.66;99024.03;10290506;28;937;-72
2024/03/14 21:29:01;;;;;;;;;;;;;;;19.13;45.71;99019.69;10290783;28;1109;-72
2024/03/14 21:33:58;;;;;;;;;;;;;;;19.13;45.76;99017.06;10290132;28;1913;-73
2024/03/14 21:38:53;;;;;;;;;;;;;;;19.13;45.64;99014.41;10290337;28;814;-72
2024/03/14 21:43:49;;;;;;;;;;;;;;;19.13;45.80;99019.69;10290346;28;795;-73
2024/03/14 21:48:46;;;;;;;;;;;;;;;19.12;45.77;99010.91;10289654;28;770;-72
2024/03/14 21:53:42;;;;;;;;;;;;;;;19.12;45.70;99010.91;10289863;28;1894;-73
2024/03/14 21:58:38;;;;;;;;;;;;;;;19.12;45.74;99002.97;10289339;28;806;-73
2024/03/14 22:03:34;;;;;;;;;;;;;;;19.11;45.83;98995.16;10289185;28;954;-73
2024/03/14 22:08:29;;;;;;;;;;;;;;;19.10;45.70;98994.31;10288866;28;881;-73
2024/03/14 22:13:26;;;;;;;;;;;;;;;19.09;45.78;98989.13;10288704;28;1947;-72
2024/03/14 22:18:23;;;;;;;;;;;;;;;19.08;45.83;98983.00;10288511;28;977;-72
2024/03/14 22:23:19;;;;;;;;;;;;;;;19.06;45.84;98979.59;10287780;28;853;-72
2024/03/14 22:28:15;;;;;;;;;;;;;;;19.05;45.88;98976.09;10288160;28;1338;-72
2024/03/14 22:33:11;;;;;;;;;;;;;;;19.04;45.89;98982.31;10288561;28;1927;-72
2024/03/14 22:38:07;;;;;;;;;;;;;;;19.04;45.87;98978.81;10287589;28;839;-72
2024/03/14 22:43:03;;;;;;;;;;;;;;;19.01;45.80;98977.22;10287802;28;770;-72
2024/03/14 22:47:59;;;;;;;;;;;;;;;19.00;45.76;98980.81;10287729;28;881;-72
2024/03/14 22:52:54;;;;;;;;;;;;;;;18.98;45.78;98985.34;10287456;28;1961;-72
2024/03/14 22:57:51;;;;;;;;;;;;;;;18.97;45.84;98978.38;10287246;28;1021;-72
2024/03/14 23:02:47;;;;;;;;;;;;;;;18.94;45.75;98986.47;10287088;28;882;-72
2024/03/14 23:07:44;;;;;;;;;;;;;;;18.94;45.73;98975.91;10287171;28;906;-72
2024/03/14 23:12:40;;;;;;;;;;;;;;;18.93;45.76;98973.34;10287230;28;1898;-72
2024/03/14 23:17:36;;;;;;;;;;;;;;;18.92;45.90;98971.66;10286530;28;765;-72
2024/03/14 23:22:32;;;;;;;;;;;;;;;18.90;45.83;98979.66;10287859;28;929;-72
2024/03/14 23:27:27;;;;;;;;;;;;;;;18.89;45.83;98980.63;10286142;28;953;-72
2024/03/14 23:32:23;;;;;;;;;;;;;;;18.87;45.97;98974.56;10285822;28;1902;-72
2024/03/14 23:37:19;;;;;;;;;;;;;;;18.85;45.89;98971.16;10285568;28;1024;-72
2024/03/14 23:42:15;;;;;;;;;;;;;;;18.86;45.82;98970.22;10286250;28;869;-72
2024/03/14 23:47:11;;;;;;;;;;;;;;;18.82;45.68;98972.19;10285465;28;897;-72
2024/03/14 23:52:07;;;;;;;;;;;;;;;18.82;45.82;98960.78;10285342;28;826;-72
2024/03/14 23:57:03;;;;;;;;;;;;;;;18.80;45.69;98960.88;10285746;28;1952;-72
